Danville, CA

9:23 AM PDT on August 29, 2015 (GMT -0700)
Diablo Highlands Country Estates | | Change Station
CLOSE
Current Station
Personal Weather Station
Location: Danville, CA
Elevation: 541 ft
Nearby Weather Stations

Elev 541 ft 37.82 °N, 121.97 °W | Updated 8 minutes ago

Overcast
Overcast
67.3 °F
Feels Like 67.3 °F
N
1.1
Wind Variable Wind from ENE
Gusts 2.0 mph

Today
High -- | Low -- °F
--% Chance of Precip.
Yesterday
High -- | Low -- °F
Precip. -- in
6:35 AM 7:41 PM
Full, 100% visible
Pressure 29.98 in
Visibility 6.0 miles
Clouds Overcast 1500 ft
Dew Point 65 °F
Humidity 91%
Rainfall 0.00 in
Snow Depth Not available.
UV 1 out of 12
Pollen 6.20 out of 12
Air Quality Not available.
Flu Activity Not available.
METAR KLVK 291553Z 35003KT 6SM HZ OVC015 21/17 A2998 RMK AO2 DZE47 SLP150 P0000 T02110172
Pressure 29.98 in
Visibility 6.0 miles
Clouds Overcast 1500 ft
Dew Point 65 °F
Humidity 91%
Rainfall 0.00 in
Snow Depth Not available.
UV 1 out of 12
Pollen 6.20 out of 12
Air Quality Not available.
Flu Activity Not available.
METAR KLVK 291553Z 35003KT 6SM HZ OVC015 21/17 A2998 RMK AO2 DZE47 SLP150 P0000 T02110172

10-Day Weather Forecast

×

Almanac

Astronomy

Aug. 29, 2015 Rise Set
Actual Time
Civil Twilight
Nautical Twilight
Astronomical Twilight
Moon
Length of Visible Light
Length of Day
Tomorrow will be .
, % of the Moon is Illuminated

Today's Extremes

State Highs State Lows

Community

WunderPhotos

Upload Photos

1,850,719 photos uploaded!

WunderBlogs® & News

Nearby

Air Quality

  Air Quality AQ Index Pollutant
Not available.

Snow Depth

Station Depth Elevation

Earthquake Activity

City Distance Mag. Time & Date
Minimum magnitude displayed is 2.5.

Coastal Water Temperatures

Place Temperature

Stations

Nearby Weather Stations

Station Location Temp. Windchill Dew Point Humidity Wind Precip. Elev Updated Type